Jefferson, New Hampshire
Current Conditions -  °F | °C
As of 10:52 PM on Friday 24 Oct 2014 (Local Time) from KHIE Reporting Station
Overcast Overcast  
Wind Chill: 43°   Ceiling: 5000
Heat Index: 43°   Visibility: 10mi
Dew Point: 40°   Wind: 0mph
Humidity: 89%   Direction: NA
Pressure: 29.78"   Gusts: NA
Location:  44.42°N, 71.47°W
Report Text: KHIE 250252Z AUTO 00000KT 10SM BKN050 OVC100 06/04 A2978 RMK AO2 SLP092 60002 T00610044 58001
Loading
Personal Weather Stations






























Interactive Weather Map
Tropical Storm Tracking
New forecast layout! Learn more

10-Day Weather Forecast

Advertisements
Track Severe Weather on mobile